Time;durP1;ratioP1;P1;durP2;ratioP2;P2;SDS_P1;SDS_P2;PMS_P1;PMS_P2;Temp;Humidity;BMP_temperature;BMP_pressure;BME280_temperature;BME280_humidity;BME280_pressure;Samples;Min_cycle;Max_cycle;Signal;HPM_P1;HPM_P2
2022/01/15 00:01:23;;;;;;;31.93;15.00;;;1.90;99.90;;;;;;10370891;28;20221;-75
2022/01/15 00:06:23;;;;;;;51.77;15.63;;;2.00;99.90;;;;;;10361193;28;20308;-75
2022/01/15 00:11:24;;;;;;;40.63;14.57;;;1.90;99.90;;;;;;10372929;28;20676;-74
2022/01/15 00:16:32;;;;;;;33.07;14.83;;;1.90;99.90;;;;;;10371288;28;20250;-75
2022/01/15 00:21:33;;;;;;;29.50;13.67;;;1.90;99.90;;;;;;10368842;28;20407;-75
2022/01/15 00:26:34;;;;;;;25.17;13.27;;;1.80;99.90;;;;;;10389279;28;20790;-74
2022/01/15 00:31:34;;;;;;;28.23;13.17;;;1.80;99.90;;;;;;10374934;28;20225;-75
2022/01/15 00:36:35;;;;;;;21.20;11.70;;;1.80;99.90;;;;;;10379969;28;20233;-75
2022/01/15 00:41:35;;;;;;;24.47;12.67;;;1.90;99.90;;;;;;10362829;28;20224;-75
2022/01/15 00:46:36;;;;;;;20.30;11.63;;;1.80;99.90;;;;;;10372155;28;20590;-76
2022/01/15 00:51:38;;;;;;;29.73;12.30;;;1.70;99.90;;;;;;10351230;28;20987;-74
2022/01/15 00:56:41;;;;;;;25.10;13.40;;;1.80;99.90;;;;;;10353035;28;20241;-74
2022/01/15 01:01:42;;;;;;;29.60;13.20;;;1.80;99.90;;;;;;10368267;28;20275;-75
2022/01/15 01:06:43;;;;;;;39.10;13.70;;;1.80;99.90;;;;;;10367686;28;20247;-73
2022/01/15 01:11:54;;;;;;;28.87;13.63;;;1.80;99.90;;;;;;10351597;28;20304;-73
2022/01/15 01:27:49;;;;;;;26.53;13.00;;;1.80;99.90;;;;;;10361686;28;20229;-73
2022/01/15 01:37:55;;;;;;;28.90;13.17;;;1.70;99.90;;;;;;10365669;28;20309;-74
2022/01/15 01:43:08;;;;;;;31.47;14.60;;;1.60;99.90;;;;;;10363498;28;20221;-74
2022/01/15 01:48:09;;;;;;;32.30;14.23;;;1.70;99.90;;;;;;10372070;28;20237;-74
2022/01/15 01:53:10;;;;;;;34.20;14.90;;;1.80;99.90;;;;;;10373589;28;20229;-75
2022/01/15 01:58:11;;;;;;;26.10;13.30;;;1.90;99.90;;;;;;10376150;28;20692;-76
2022/01/15 02:03:18;;;;;;;34.77;12.80;;;1.80;99.90;;;;;;10376037;28;20314;-77
2022/01/15 02:08:19;;;;;;;26.73;12.80;;;1.70;99.90;;;;;;10362717;28;20323;-75
2022/01/15 02:13:20;;;;;;;26.03;12.77;;;1.60;99.90;;;;;;10374851;28;20229;-76
2022/01/15 02:18:20;;;;;;;27.03;13.07;;;1.60;99.90;;;;;;10373363;28;20761;-75
2022/01/15 02:23:34;;;;;;;26.00;12.50;;;1.60;99.90;;;;;;10362777;28;20288;-76
2022/01/15 02:28:38;;;;;;;28.17;13.73;;;1.50;99.90;;;;;;10370110;28;20233;-75
2022/01/15 02:33:40;;;;;;;24.30;12.73;;;1.50;99.90;;;;;;10363038;28;20257;-76
2022/01/15 02:38:42;;;;;;;26.93;13.20;;;1.50;99.90;;;;;;10360803;28;20225;-75
2022/01/15 02:43:43;;;;;;;28.00;14.47;;;1.60;99.90;;;;;;10372697;28;20221;-75
2022/01/15 02:48:45;;;;;;;24.90;13.90;;;1.60;99.90;;;;;;10366035;28;20229;-74
2022/01/15 02:53:47;;;;;;;26.53;14.27;;;1.70;99.90;;;;;;10352312;28;20233;-73
2022/01/15 02:58:48;;;;;;;28.23;14.37;;;1.70;99.90;;;;;;10365138;28;20218;-74
2022/01/15 03:03:49;;;;;;;28.80;15.53;;;1.80;99.90;;;;;;10358722;28;20237;-74
2022/01/15 03:08:52;;;;;;;32.43;14.47;;;1.90;99.90;;;;;;10369143;28;20236;-73
2022/01/15 03:13:52;;;;;;;31.37;15.40;;;1.90;99.90;;;;;;10368480;28;20230;-75
2022/01/15 03:18:53;;;;;;;32.13;13.83;;;1.90;99.90;;;;;;10365327;28;20679;-75
2022/01/15 03:23:54;;;;;;;29.50;14.30;;;2.00;99.90;;;;;;10358497;28;20225;-75
2022/01/15 03:28:54;;;;;;;26.67;14.57;;;2.00;99.90;;;;;;10367385;28;20224;-73
2022/01/15 03:33:58;;;;;;;34.63;15.33;;;2.00;99.90;;;;;;10370676;28;20240;-76
2022/01/15 03:38:58;;;;;;;33.37;15.30;;;2.10;99.90;;;;;;10369537;28;20225;-76
2022/01/15 03:43:59;;;;;;;28.50;14.33;;;2.00;99.90;;;;;;10372391;28;20225;-76
2022/01/15 03:48:59;;;;;;;32.40;15.07;;;2.00;99.90;;;;;;10358536;28;20692;-77
2022/01/15 03:54:00;;;;;;;33.43;15.87;;;2.00;99.90;;;;;;10359063;28;20233;-75
2022/01/15 03:59:01;;;;;;;29.97;15.10;;;2.00;99.90;;;;;;10365628;28;20529;-76
2022/01/15 04:04:01;;;;;;;31.60;15.17;;;2.10;99.90;;;;;;10368945;28;20701;-75
2022/01/15 04:09:02;;;;;;;34.93;14.63;;;2.10;99.90;;;;;;10354524;28;20309;-75
2022/01/15 04:14:05;;;;;;;31.57;15.50;;;2.10;99.90;;;;;;10366340;28;20221;-76
2022/01/15 04:19:08;;;;;;;27.53;15.53;;;2.10;99.90;;;;;;10365749;28;20917;-75
2022/01/15 04:24:09;;;;;;;31.73;15.97;;;2.10;99.90;;;;;;10366708;28;20997;-74
2022/01/15 04:29:09;;;;;;;28.40;15.57;;;2.00;99.90;;;;;;10366788;28;20255;-75
2022/01/15 04:34:10;;;;;;;26.43;14.87;;;2.10;99.90;;;;;;10365623;28;20236;-75
2022/01/15 04:39:12;;;;;;;31.47;15.97;;;2.10;99.90;;;;;;10364894;28;20221;-75
2022/01/15 04:44:12;;;;;;;29.60;14.97;;;2.10;99.90;;;;;;10355314;28;20222;-76
2022/01/15 04:49:13;;;;;;;31.97;14.73;;;2.10;99.90;;;;;;10380529;28;20873;-76
2022/01/15 04:54:17;;;;;;;36.03;16.50;;;2.20;99.90;;;;;;10374458;28;20867;-76
2022/01/15 04:59:17;;;;;;;29.17;15.23;;;2.20;99.90;;;;;;10361025;28;20300;-75
2022/01/15 05:04:19;;;;;;;27.97;14.67;;;2.20;99.90;;;;;;10352912;28;20943;-77
2022/01/15 05:09:20;;;;;;;30.83;15.30;;;2.20;99.90;;;;;;10369332;28;20319;-76
2022/01/15 05:14:20;;;;;;;31.67;15.93;;;2.20;99.90;;;;;;10386524;28;20249;-74
2022/01/15 05:19:21;;;;;;;28.30;14.37;;;2.20;99.90;;;;;;10358509;28;20628;-74
2022/01/15 05:24:22;;;;;;;25.90;13.47;;;2.30;99.90;;;;;;10367544;28;20236;-74
2022/01/15 05:29:23;;;;;;;26.23;12.83;;;2.30;99.90;;;;;;10379197;28;20232;-74
2022/01/15 05:34:24;;;;;;;27.13;13.97;;;2.20;99.90;;;;;;10358182;28;20244;-75
2022/01/15 05:39:24;;;;;;;28.37;13.27;;;2.20;99.90;;;;;;10374288;28;20218;-75
2022/01/15 05:44:26;;;;;;;24.50;13.20;;;2.20;99.90;;;;;;10372243;28;20307;-75
2022/01/15 05:49:29;;;;;;;23.53;12.33;;;2.20;99.90;;;;;;10358818;28;20236;-76
2022/01/15 05:54:31;;;;;;;24.90;12.67;;;2.20;99.90;;;;;;10367950;28;20307;-76
2022/01/15 05:59:31;;;;;;;29.63;14.50;;;2.30;99.90;;;;;;10366274;28;20218;-75
2022/01/15 06:04:32;;;;;;;26.70;13.30;;;2.30;99.90;;;;;;10360569;28;20228;-75
2022/01/15 06:09:32;;;;;;;26.40;14.50;;;2.30;99.90;;;;;;10360037;28;20272;-75
2022/01/15 06:14:36;;;;;;;25.00;12.90;;;2.40;99.90;;;;;;10381392;28;20216;-75
2022/01/15 06:19:38;;;;;;;24.33;13.20;;;2.30;99.90;;;;;;10366736;28;20348;-75
2022/01/15 06:24:38;;;;;;;22.70;13.73;;;2.30;99.90;;;;;;10373616;28;20688;-74
2022/01/15 06:29:39;;;;;;;24.43;13.80;;;2.30;99.90;;;;;;10369180;28;20230;-73
2022/01/15 06:34:40;;;;;;;21.20;12.37;;;2.30;99.90;;;;;;10377684;28;20224;-74
2022/01/15 06:39:40;;;;;;;17.00;10.37;;;2.40;99.90;;;;;;10384982;28;20240;-74
2022/01/15 06:44:41;;;;;;;18.93;10.90;;;2.40;99.90;;;;;;10390640;28;20220;-77
2022/01/15 06:49:42;;;;;;;18.70;11.43;;;2.40;99.90;;;;;;10376921;28;20227;-76
2022/01/15 06:54:42;;;;;;;21.40;11.50;;;2.50;99.90;;;;;;10384604;28;20229;-75
2022/01/15 06:59:44;;;;;;;19.40;10.90;;;2.50;99.90;;;;;;10366030;28;20736;-75
2022/01/15 07:04:45;;;;;;;19.60;10.60;;;2.50;99.90;;;;;;10387369;28;20217;-76
2022/01/15 07:09:46;;;;;;;13.07;7.67;;;2.50;99.90;;;;;;10374413;28;20708;-75
2022/01/15 07:14:50;;;;;;;12.27;7.83;;;2.50;99.90;;;;;;10376087;28;20244;-76
2022/01/15 07:19:51;;;;;;;12.97;8.77;;;2.50;99.90;;;;;;10366457;28;20218;-76
2022/01/15 07:24:52;;;;;;;15.20;9.57;;;2.60;99.90;;;;;;10359212;28;20348;-73
2022/01/15 07:29:52;;;;;;;14.67;9.40;;;2.70;99.90;;;;;;10381851;28;20233;-75
2022/01/15 07:34:53;;;;;;;15.53;9.90;;;2.70;99.90;;;;;;10382182;28;20585;-73
2022/01/15 07:39:53;;;;;;;12.77;8.37;;;2.70;99.90;;;;;;10386684;28;20236;-75
2022/01/15 07:44:54;;;;;;;12.33;8.27;;;2.70;99.90;;;;;;10379608;28;20225;-76
2022/01/15 07:49:55;;;;;;;11.27;7.83;;;2.70;99.90;;;;;;10362471;28;20735;-76
2022/01/15 07:54:58;;;;;;;11.07;7.63;;;2.80;99.90;;;;;;10361912;28;20227;-76
2022/01/15 07:59:58;;;;;;;11.10;7.87;;;2.80;99.90;;;;;;10374915;28;20236;-76
2022/01/15 08:04:59;;;;;;;14.97;8.43;;;2.90;99.90;;;;;;10366659;28;20229;-76
2022/01/15 08:10:01;;;;;;;11.80;7.70;;;3.00;99.90;;;;;;10393787;28;20225;-75
2022/01/15 08:15:01;;;;;;;11.93;8.30;;;2.90;99.90;;;;;;10367238;28;20217;-74
2022/01/15 08:20:04;;;;;;;10.80;7.17;;;2.90;99.90;;;;;;10363229;28;20306;-76
2022/01/15 08:25:05;;;;;;;11.17;7.87;;;2.90;99.90;;;;;;10369025;28;20743;-76
2022/01/15 08:30:07;;;;;;;11.00;6.80;;;2.90;99.90;;;;;;10367586;28;20275;-77
2022/01/15 08:35:08;;;;;;;10.53;7.33;;;3.00;99.90;;;;;;10373729;28;20265;-77
2022/01/15 08:40:15;;;;;;;11.23;7.67;;;3.00;99.90;;;;;;10368998;28;20197;-76
2022/01/15 08:45:16;;;;;;;8.77;6.57;;;3.00;99.90;;;;;;10384421;28;20291;-75
2022/01/15 08:50:17;;;;;;;8.83;6.83;;;2.90;99.90;;;;;;10379733;28;20201;-76
2022/01/15 08:55:20;;;;;;;8.37;6.07;;;2.90;99.90;;;;;;10376345;28;20578;-75
2022/01/15 09:00:21;;;;;;;6.80;5.57;;;3.00;99.90;;;;;;10370872;28;20201;-76
2022/01/15 09:05:23;;;;;;;8.00;6.70;;;3.00;99.90;;;;;;10384604;28;20201;-77
2022/01/15 09:10:23;;;;;;;7.83;6.07;;;3.10;99.90;;;;;;10362764;28;20268;-76
2022/01/15 09:15:25;;;;;;;7.00;5.60;;;3.10;99.90;;;;;;10374236;28;20229;-76
2022/01/15 09:20:27;;;;;;;7.63;6.40;;;3.20;99.90;;;;;;10378992;28;20305;-77
2022/01/15 09:25:27;;;;;;;8.00;6.03;;;3.20;99.90;;;;;;10366572;28;20302;-75
2022/01/15 09:30:28;;;;;;;9.43;6.40;;;3.30;99.90;;;;;;10371032;28;20272;-76
2022/01/15 09:35:29;;;;;;;6.70;5.60;;;3.20;99.90;;;;;;10378170;28;20237;-75
2022/01/15 09:40:30;;;;;;;5.97;5.07;;;3.30;99.90;;;;;;10346094;28;20264;-75
2022/01/15 09:45:34;;;;;;;9.10;6.07;;;3.40;99.90;;;;;;10366796;28;20678;-75
2022/01/15 09:50:41;;;;;;;6.90;4.73;;;3.40;99.90;;;;;;10368235;28;20253;-75
2022/01/15 09:55:43;;;;;;;6.97;6.28;;;3.40;99.90;;;;;;10359416;28;20435;-75
2022/01/15 10:00:44;;;;;;;7.47;5.77;;;3.40;99.90;;;;;;10356389;28;20220;-74
2022/01/15 10:05:46;;;;;;;6.80;5.27;;;3.40;99.90;;;;;;10371363;28;20263;-73
2022/01/15 10:10:49;;;;;;;7.23;5.27;;;3.50;99.90;;;;;;10354519;28;20288;-76
2022/01/15 10:16:11;;;;;;;8.50;5.50;;;3.50;99.90;;;;;;10396153;28;20276;-76
2022/01/15 10:21:16;;;;;;;7.87;5.03;;;3.50;99.90;;;;;;10385047;28;20231;-75
2022/01/15 10:26:22;;;;;;;6.43;5.07;;;3.60;99.90;;;;;;10355212;28;20316;-76
2022/01/15 10:31:44;;;;;;;6.77;5.07;;;3.50;99.90;;;;;;10383333;28;20221;-75
2022/01/15 10:36:45;;;;;;;8.13;5.77;;;3.60;99.90;;;;;;10386700;28;20600;-76
2022/01/15 10:41:47;;;;;;;7.57;5.10;;;3.70;99.90;;;;;;10375756;28;20224;-73
2022/01/15 10:46:47;;;;;;;7.10;5.40;;;3.60;99.90;;;;;;10375391;28;20277;-75
2022/01/15 10:52:05;;;;;;;6.93;5.43;;;3.60;99.90;;;;;;10404100;28;20233;-75
2022/01/15 10:57:08;;;;;;;7.10;5.37;;;3.60;99.90;;;;;;10380311;28;20241;-75
2022/01/15 11:02:29;;;;;;;7.97;5.60;;;3.50;99.90;;;;;;10383663;28;20300;-77
2022/01/15 11:07:36;;;;;;;8.93;6.40;;;3.50;99.90;;;;;;10356480;28;20232;-75
2022/01/15 11:12:37;;;;;;;7.17;5.20;;;3.60;99.90;;;;;;10390362;28;20291;-72
2022/01/15 11:17:41;;;;;;;7.63;5.47;;;3.70;99.90;;;;;;10383461;28;20306;-72
2022/01/15 11:22:43;;;;;;;7.13;5.40;;;3.80;99.90;;;;;;10357528;28;20226;-73
2022/01/15 11:28:26;;;;;;;7.93;5.50;;;3.80;99.90;;;;;;10350179;28;20648;-73
2022/01/15 11:33:30;;;;;;;7.63;5.90;;;3.70;99.90;;;;;;10342679;28;20692;-74
2022/01/15 11:38:43;;;;;;;7.23;5.50;;;3.80;99.90;;;;;;10357281;28;20221;-73
2022/01/15 11:43:45;;;;;;;8.23;6.00;;;3.80;99.90;;;;;;10367418;28;20225;-74
2022/01/15 11:48:45;;;;;;;6.13;5.10;;;3.90;99.90;;;;;;10340945;28;20324;-73
2022/01/15 11:53:54;;;;;;;8.97;6.27;;;4.00;99.90;;;;;;10355115;28;20654;-74
2022/01/15 11:58:57;;;;;;;7.90;5.70;;;3.90;99.90;;;;;;10356288;28;20257;-74
2022/01/15 12:04:22;;;;;;;8.83;5.97;;;4.00;99.90;;;;;;10333440;28;20221;-73
2022/01/15 12:09:40;;;;;;;6.70;5.33;;;4.00;99.90;;;;;;10350466;28;20330;-74
2022/01/15 12:14:53;;;;;;;7.77;5.77;;;3.80;99.90;;;;;;10357447;28;20230;-74
2022/01/15 12:19:54;;;;;;;6.77;5.80;;;3.90;99.90;;;;;;10354607;28;20511;-74
2022/01/15 12:24:55;;;;;;;8.00;6.10;;;3.90;99.90;;;;;;10330235;28;20232;-74
2022/01/15 12:30:00;;;;;;;8.33;6.50;;;3.90;99.90;;;;;;10345710;28;20712;-73
2022/01/15 12:35:01;;;;;;;7.60;6.13;;;4.10;99.90;;;;;;10346687;28;20234;-74
2022/01/15 12:40:06;;;;;;;8.17;6.23;;;4.20;99.90;;;;;;10344711;28;20304;-73
2022/01/15 12:45:06;;;;;;;8.03;6.43;;;4.10;99.90;;;;;;10354103;28;20234;-74
2022/01/15 12:50:07;;;;;;;8.67;6.70;;;4.10;99.90;;;;;;10352374;28;20196;-75
2022/01/15 12:55:08;;;;;;;11.20;6.97;;;4.00;99.90;;;;;;10328233;28;20222;-74
2022/01/15 13:00:16;;;;;;;11.07;7.07;;;4.00;99.90;;;;;;10330060;28;20244;-74
2022/01/15 13:05:17;;;;;;;7.60;6.40;;;4.00;99.90;;;;;;10341300;28;20197;-74
2022/01/15 13:10:47;;;;;;;9.33;7.70;;;3.80;99.90;;;;;;10353161;28;20281;-74
2022/01/15 13:15:57;;;;;;;8.97;7.30;;;3.70;99.90;;;;;;10352775;28;20237;-74
2022/01/15 13:20:59;;;;;;;10.13;7.13;;;3.70;99.90;;;;;;10351842;28;20601;-74
2022/01/15 13:25:59;;;;;;;9.53;7.60;;;3.60;99.90;;;;;;10347061;28;20321;-73
2022/01/15 13:31:00;;;;;;;11.03;7.60;;;3.60;99.90;;;;;;10356245;28;20307;-73
2022/01/15 13:36:16;;;;;;;11.23;7.63;;;3.60;99.90;;;;;;10342707;28;20310;-74
2022/01/15 13:41:19;;;;;;;10.00;7.83;;;3.60;99.90;;;;;;10361818;28;20228;-74
2022/01/15 13:46:36;;;;;;;10.53;7.70;;;3.60;99.90;;;;;;10347514;28;20726;-74
2022/01/15 13:57:15;;;;;;;9.80;7.83;;;3.80;99.90;;;;;;10347931;28;20316;-74
2022/01/15 14:02:15;;;;;;;12.50;6.97;;;3.80;99.90;;;;;;10341297;28;20228;-74
2022/01/15 14:07:25;;;;;;;9.20;7.37;;;3.80;99.90;;;;;;10333273;28;20294;-74
2022/01/15 14:12:26;;;;;;;10.93;8.27;;;3.80;99.90;;;;;;10343805;28;20232;-74
2022/01/15 14:17:27;;;;;;;11.87;7.97;;;3.70;99.90;;;;;;10339923;28;20257;-74
2022/01/15 14:22:40;;;;;;;10.30;8.13;;;3.70;99.90;;;;;;10353655;28;20281;-73
2022/01/15 14:27:42;;;;;;;9.63;7.87;;;3.70;99.90;;;;;;10352423;28;20546;-74
2022/01/15 14:32:42;;;;;;;11.97;8.97;;;3.70;99.90;;;;;;10327284;28;20757;-73
2022/01/15 14:37:47;;;;;;;10.60;8.50;;;3.60;99.90;;;;;;10342793;28;20309;-74
2022/01/15 14:42:48;;;;;;;13.00;9.13;;;3.50;99.90;;;;;;10349938;28;20669;-74
2022/01/15 14:47:51;;;;;;;13.10;9.57;;;3.50;99.90;;;;;;10351164;28;20256;-74
2022/01/15 14:52:52;;;;;;;11.63;9.03;;;3.50;99.90;;;;;;10356021;28;20316;-74
2022/01/15 14:57:53;;;;;;;14.80;10.30;;;3.40;99.90;;;;;;10351552;28;20304;-74
2022/01/15 15:02:54;;;;;;;15.13;10.33;;;3.30;99.90;;;;;;10356994;28;20248;-73
2022/01/15 15:07:54;;;;;;;15.70;11.03;;;3.30;99.90;;;;;;10350787;28;20253;-73
2022/01/15 15:12:57;;;;;;;14.43;10.87;;;3.30;99.90;;;;;;10357529;28;20233;-74
2022/01/15 15:17:57;;;;;;;15.60;11.47;;;3.20;99.90;;;;;;10332385;28;20229;-73
2022/01/15 15:22:58;;;;;;;13.93;11.20;;;3.20;99.90;;;;;;10358366;28;20224;-73
2022/01/15 15:27:59;;;;;;;14.70;11.27;;;3.30;99.90;;;;;;10365190;28;20259;-74
2022/01/15 15:33:03;;;;;;;14.60;11.63;;;3.40;99.90;;;;;;10367046;28;20232;-74
2022/01/15 15:38:04;;;;;;;15.70;11.10;;;3.40;99.90;;;;;;10360048;28;20300;-73
2022/01/15 15:43:04;;;;;;;12.47;9.83;;;3.40;99.90;;;;;;10349083;28;20701;-73
2022/01/15 15:48:05;;;;;;;15.30;11.67;;;3.40;99.90;;;;;;10356080;28;20236;-74
2022/01/15 15:53:07;;;;;;;15.57;11.13;;;3.30;99.90;;;;;;10332964;28;20235;-74
2022/01/15 15:58:08;;;;;;;17.50;11.70;;;3.40;99.90;;;;;;10349140;28;20224;-74
2022/01/15 16:03:10;;;;;;;12.17;9.60;;;3.40;99.90;;;;;;10351979;28;20787;-73
2022/01/15 16:08:11;;;;;;;14.30;10.10;;;3.40;99.90;;;;;;10358479;28;20311;-73
2022/01/15 16:13:12;;;;;;;13.30;10.30;;;3.30;99.90;;;;;;10343542;28;20322;-71
2022/01/15 16:18:12;;;;;;;15.10;11.43;;;3.20;99.90;;;;;;10359873;28;20225;-72
2022/01/15 16:23:16;;;;;;;16.20;11.17;;;3.10;99.90;;;;;;10355953;28;20308;-72
2022/01/15 16:28:17;;;;;;;12.70;10.73;;;3.20;99.90;;;;;;10345513;28;20233;-72
2022/01/15 16:33:18;;;;;;;15.97;12.13;;;3.30;99.90;;;;;;10362922;28;20596;-73
2022/01/15 16:38:19;;;;;;;15.20;11.73;;;3.40;99.90;;;;;;10370217;28;20684;-73
2022/01/15 16:43:20;;;;;;;17.60;12.20;;;3.40;99.90;;;;;;10376621;28;20225;-72
2022/01/15 16:48:20;;;;;;;15.30;10.93;;;3.40;99.90;;;;;;10362969;28;20613;-72
2022/01/15 16:53:22;;;;;;;15.30;11.73;;;3.40;99.90;;;;;;10363639;28;20221;-72
2022/01/15 16:58:23;;;;;;;16.63;12.13;;;3.30;99.90;;;;;;10356333;28;20724;-74
2022/01/15 17:03:24;;;;;;;14.77;10.67;;;3.30;99.90;;;;;;10357356;28;20229;-74
2022/01/15 17:08:25;;;;;;;12.37;10.07;;;3.30;99.90;;;;;;10367370;28;20232;-72
2022/01/15 17:13:26;;;;;;;11.07;9.10;;;3.30;99.90;;;;;;10382444;28;20225;-74
2022/01/15 17:18:27;;;;;;;12.50;9.90;;;3.30;99.90;;;;;;10367747;28;20740;-73
2022/01/15 17:23:29;;;;;;;13.53;9.87;;;3.30;99.90;;;;;;10369878;28;20252;-72
2022/01/15 17:28:29;;;;;;;12.03;9.13;;;3.30;99.90;;;;;;10389705;28;20276;-74
2022/01/15 17:33:30;;;;;;;11.67;9.47;;;3.30;99.90;;;;;;10383668;28;20586;-74
2022/01/15 17:38:30;;;;;;;12.67;9.63;;;3.30;99.90;;;;;;10368547;28;20256;-74
2022/01/15 17:43:31;;;;;;;14.40;10.70;;;3.30;99.90;;;;;;10378380;28;20703;-74
2022/01/15 17:48:32;;;;;;;13.33;10.13;;;3.30;99.90;;;;;;10357847;28;20236;-74
2022/01/15 17:53:33;;;;;;;12.47;9.50;;;3.40;99.90;;;;;;10337870;28;20233;-75
2022/01/15 17:58:37;;;;;;;12.97;9.40;;;3.40;99.90;;;;;;10369878;28;20229;-75
2022/01/15 18:03:43;;;;;;;11.37;8.80;;;3.40;99.90;;;;;;10341667;28;20226;-76
2022/01/15 18:08:44;;;;;;;9.63;7.90;;;3.40;99.90;;;;;;10337219;28;20221;-73
2022/01/15 18:13:45;;;;;;;11.03;8.47;;;3.40;99.90;;;;;;10368102;28;20232;-72
2022/01/15 18:18:45;;;;;;;12.90;10.23;;;3.40;99.90;;;;;;10357256;28;20229;-75
2022/01/15 18:23:46;;;;;;;11.20;8.07;;;3.50;99.90;;;;;;10357944;28;20275;-73
2022/01/15 18:28:47;;;;;;;10.20;8.40;;;3.50;99.90;;;;;;10359092;28;20223;-72
2022/01/15 18:33:50;;;;;;;12.23;9.50;;;3.60;99.90;;;;;;10364890;28;20225;-72
2022/01/15 18:38:50;;;;;;;12.53;8.90;;;3.60;99.90;;;;;;10372923;28;20708;-74
2022/01/15 18:43:51;;;;;;;15.63;10.40;;;3.70;99.90;;;;;;10366642;28;20232;-76
2022/01/15 18:48:53;;;;;;;9.20;7.30;;;3.80;99.90;;;;;;10372543;28;20229;-76
2022/01/15 18:53:54;;;;;;;12.23;9.07;;;3.80;99.90;;;;;;10355743;28;20237;-76
2022/01/15 18:58:55;;;;;;;11.70;9.33;;;3.70;99.90;;;;;;10366692;28;20221;-76
2022/01/15 19:03:56;;;;;;;12.13;8.87;;;3.80;99.90;;;;;;10376446;28;20229;-76
2022/01/15 19:08:57;;;;;;;13.53;10.37;;;3.80;99.90;;;;;;10340589;28;20237;-75
2022/01/15 19:13:57;;;;;;;11.13;9.30;;;3.80;99.90;;;;;;10380077;28;20225;-76
2022/01/15 19:19:00;;;;;;;12.23;9.27;;;3.80;99.90;;;;;;10361697;28;20660;-75
2022/01/15 19:24:01;;;;;;;13.60;9.27;;;3.80;99.90;;;;;;10349270;28;20214;-77
2022/01/15 19:29:02;;;;;;;11.97;8.43;;;3.90;99.90;;;;;;10334559;28;20222;-74
2022/01/15 19:34:03;;;;;;;14.23;10.37;;;3.90;99.90;;;;;;10337715;28;20240;-76
2022/01/15 19:39:05;;;;;;;11.50;8.80;;;3.80;99.90;;;;;;10376941;28;20224;-74
2022/01/15 19:44:07;;;;;;;12.50;8.93;;;3.70;99.90;;;;;;10358710;28;20228;-76
2022/01/15 19:49:09;;;;;;;12.93;9.47;;;3.80;99.90;;;;;;10369675;28;20668;-75
2022/01/15 19:54:10;;;;;;;13.17;9.47;;;3.70;99.90;;;;;;10356763;28;20233;-76
2022/01/15 19:59:13;;;;;;;12.93;10.13;;;3.80;99.90;;;;;;10347161;28;20231;-76
2022/01/15 20:04:14;;;;;;;12.50;9.53;;;3.70;99.90;;;;;;10346423;28;20764;-77
2022/01/15 20:09:15;;;;;;;12.77;9.30;;;3.50;99.90;;;;;;10360715;28;20236;-75
2022/01/15 20:14:15;;;;;;;12.40;9.47;;;3.50;99.90;;;;;;10353752;28;20229;-75
2022/01/15 20:19:16;;;;;;;11.80;9.20;;;3.40;99.90;;;;;;10348709;28;20229;-76
2022/01/15 20:24:17;;;;;;;13.50;10.80;;;3.30;99.90;;;;;;10365143;28;20352;-77
2022/01/15 20:29:21;;;;;;;13.43;10.20;;;3.30;99.90;;;;;;10359544;28;20891;-77
2022/01/15 20:34:24;;;;;;;17.23;12.30;;;3.30;99.90;;;;;;10357188;28;20252;-76
2022/01/15 20:39:25;;;;;;;14.60;11.30;;;3.30;99.90;;;;;;10352266;28;20281;-76
2022/01/15 20:44:26;;;;;;;17.00;11.43;;;3.20;99.90;;;;;;10367454;28;20308;-77
2022/01/15 20:49:27;;;;;;;14.93;11.23;;;3.30;99.90;;;;;;10366960;28;20681;-75
2022/01/15 20:54:27;;;;;;;13.70;10.73;;;3.30;99.90;;;;;;10388309;28;20236;-75
2022/01/15 20:59:29;;;;;;;15.50;11.47;;;3.20;99.90;;;;;;10342549;28;20288;-76
2022/01/15 21:04:30;;;;;;;15.37;11.57;;;3.20;99.90;;;;;;10356269;28;20299;-74
2022/01/15 21:09:30;;;;;;;17.90;12.87;;;3.20;99.90;;;;;;10365409;28;20703;-74
2022/01/15 21:14:31;;;;;;;15.50;11.47;;;3.20;99.90;;;;;;10361657;28;20225;-75
2022/01/15 21:19:31;;;;;;;17.33;12.47;;;3.20;99.90;;;;;;10357587;28;20230;-74
2022/01/15 21:24:36;;;;;;;17.97;12.57;;;3.20;99.90;;;;;;10349880;28;20224;-75
2022/01/15 21:29:36;;;;;;;18.30;12.93;;;3.10;99.90;;;;;;10342753;28;20221;-73
2022/01/15 21:34:37;;;;;;;17.67;13.17;;;3.20;99.90;;;;;;10344080;28;20279;-75
2022/01/15 21:39:38;;;;;;;18.23;12.57;;;3.20;99.90;;;;;;10365742;28;20233;-75
2022/01/15 21:44:39;;;;;;;19.50;13.07;;;3.30;99.90;;;;;;10348752;28;20257;-74
2022/01/15 21:49:41;;;;;;;16.83;12.93;;;3.30;99.90;;;;;;10345377;28;20272;-76
2022/01/15 21:54:41;;;;;;;19.03;12.87;;;3.30;99.90;;;;;;10353550;28;20671;-76
2022/01/15 21:59:42;;;;;;;18.07;13.47;;;3.30;99.90;;;;;;10348301;28;20329;-74
2022/01/15 22:04:44;;;;;;;17.90;12.67;;;3.30;99.90;;;;;;10369996;28;20224;-75
2022/01/15 22:09:44;;;;;;;19.83;13.27;;;3.30;99.90;;;;;;10362133;28;20783;-72
2022/01/15 22:14:46;;;;;;;18.70;12.47;;;3.30;99.90;;;;;;10361922;28;20315;-75
2022/01/15 22:19:46;;;;;;;17.77;13.60;;;3.30;99.90;;;;;;10348805;28;20218;-75
2022/01/15 22:24:47;;;;;;;20.77;13.67;;;3.30;99.90;;;;;;10357936;28;20221;-74
2022/01/15 22:29:48;;;;;;;22.43;15.07;;;3.20;99.90;;;;;;10365654;28;20254;-74
2022/01/15 22:34:51;;;;;;;19.23;13.60;;;3.20;99.90;;;;;;10357337;28;20225;-75
2022/01/15 22:39:52;;;;;;;19.23;13.97;;;3.30;99.90;;;;;;10350486;28;20225;-76
2022/01/15 22:44:58;;;;;;;20.47;14.20;;;3.50;99.90;;;;;;10343955;28;20237;-76
2022/01/15 22:49:59;;;;;;;18.70;13.57;;;3.60;99.90;;;;;;10356394;28;20217;-75
2022/01/15 22:55:01;;;;;;;18.97;13.87;;;3.70;99.90;;;;;;10365706;28;20224;-75
2022/01/15 23:00:08;;;;;;;20.03;13.43;;;3.80;99.90;;;;;;10367442;28;20232;-75
2022/01/15 23:05:12;;;;;;;18.57;13.53;;;3.80;99.90;;;;;;10352384;28;20229;-75
2022/01/15 23:10:13;;;;;;;15.70;11.33;;;3.70;99.90;;;;;;10345813;28;20194;-75
2022/01/15 23:20:31;;;;;;;16.87;12.33;;;3.60;99.90;;;;;;10360485;28;20238;-75
2022/01/15 23:25:32;;;;;;;15.40;11.10;;;3.70;99.90;;;;;;10345297;28;20378;-73
2022/01/15 23:30:34;;;;;;;14.97;11.23;;;3.70;99.90;;;;;;10360119;28;20389;-74
2022/01/15 23:35:35;;;;;;;14.37;10.93;;;3.70;99.90;;;;;;10342775;28;20237;-74
2022/01/15 23:40:36;;;;;;;15.53;10.90;;;3.60;99.90;;;;;;10352192;28;20222;-73
2022/01/15 23:50:40;;;;;;;18.43;12.93;;;3.60;99.90;;;;;;10347681;28;20235;-76
2022/01/15 23:55:41;;;;;;;19.47;13.70;;;3.60;99.90;;;;;;10354430;28;20677;-76
